sensor_id;sensor_type;location;lat;lon;timestamp;P1;durP1;ratioP1;P2;durP2;ratioP2
34405;SDS011;20658;45.630;8.886;2022-12-18T00:00:26;35.88;;;26.35;;
34405;SDS011;20658;45.630;8.886;2022-12-18T00:02:55;36.75;;;25.15;;
34405;SDS011;20658;45.630;8.886;2022-12-18T00:05:28;33.88;;;23.55;;
34405;SDS011;20658;45.630;8.886;2022-12-18T00:08:02;32.88;;;23.48;;
34405;SDS011;20658;45.630;8.886;2022-12-18T00:10:37;33.78;;;22.75;;
34405;SDS011;20658;45.630;8.886;2022-12-18T00:13:11;33.80;;;22.10;;
34405;SDS011;20658;45.630;8.886;2022-12-18T00:15:40;32.70;;;23.45;;
34405;SDS011;20658;45.630;8.886;2022-12-18T00:18:13;35.88;;;23.63;;
34405;SDS011;20658;45.630;8.886;2022-12-18T00:20:47;35.53;;;23.58;;
34405;SDS011;20658;45.630;8.886;2022-12-18T00:23:15;35.50;;;22.75;;
34405;SDS011;20658;45.630;8.886;2022-12-18T00:25:50;31.33;;;21.50;;
34405;SDS011;20658;45.630;8.886;2022-12-18T00:28:23;30.15;;;20.95;;
34405;SDS011;20658;45.630;8.886;2022-12-18T00:30:59;31.90;;;22.38;;
34405;SDS011;20658;45.630;8.886;2022-12-18T00:33:34;32.88;;;21.50;;
34405;SDS011;20658;45.630;8.886;2022-12-18T00:36:09;30.98;;;22.60;;
34405;SDS011;20658;45.630;8.886;2022-12-18T00:38:46;32.72;;;22.75;;
34405;SDS011;20658;45.630;8.886;2022-12-18T00:41:22;34.10;;;22.25;;
34405;SDS011;20658;45.630;8.886;2022-12-18T00:44:14;35.10;;;24.05;;
34405;SDS011;20658;45.630;8.886;2022-12-18T00:46:50;35.75;;;24.88;;
34405;SDS011;20658;45.630;8.886;2022-12-18T00:49:23;31.98;;;22.40;;
34405;SDS011;20658;45.630;8.886;2022-12-18T00:51:57;33.25;;;22.38;;
34405;SDS011;20658;45.630;8.886;2022-12-18T00:54:30;30.70;;;19.65;;
34405;SDS011;20658;45.630;8.886;2022-12-18T00:57:00;33.03;;;20.63;;
34405;SDS011;20658;45.630;8.886;2022-12-18T00:59:34;28.08;;;19.45;;
34405;SDS011;20658;45.630;8.886;2022-12-18T01:02:07;30.77;;;20.50;;
34405;SDS011;20658;45.630;8.886;2022-12-18T01:04:38;31.55;;;21.13;;
34405;SDS011;20658;45.630;8.886;2022-12-18T01:07:06;30.95;;;19.05;;
34405;SDS011;20658;45.630;8.886;2022-12-18T01:09:35;29.67;;;20.02;;
34405;SDS011;20658;45.630;8.886;2022-12-18T01:12:06;29.52;;;20.15;;
34405;SDS011;20658;45.630;8.886;2022-12-18T01:14:39;29.50;;;19.00;;
34405;SDS011;20658;45.630;8.886;2022-12-18T01:17:08;30.42;;;20.27;;
34405;SDS011;20658;45.630;8.886;2022-12-18T01:19:36;29.08;;;18.17;;
34405;SDS011;20658;45.630;8.886;2022-12-18T01:22:10;31.33;;;18.90;;
34405;SDS011;20658;45.630;8.886;2022-12-18T01:24:38;47.33;;;20.85;;
34405;SDS011;20658;45.630;8.886;2022-12-18T01:27:13;29.00;;;19.30;;
34405;SDS011;20658;45.630;8.886;2022-12-18T01:29:42;30.95;;;19.35;;
34405;SDS011;20658;45.630;8.886;2022-12-18T01:32:10;30.08;;;20.40;;
34405;SDS011;20658;45.630;8.886;2022-12-18T01:34:44;30.80;;;19.55;;
34405;SDS011;20658;45.630;8.886;2022-12-18T01:37:12;30.08;;;18.67;;
34405;SDS011;20658;45.630;8.886;2022-12-18T01:39:41;31.08;;;19.08;;
34405;SDS011;20658;45.630;8.886;2022-12-18T01:42:10;27.00;;;18.92;;
34405;SDS011;20658;45.630;8.886;2022-12-18T01:47:42;30.42;;;20.30;;
34405;SDS011;20658;45.630;8.886;2022-12-18T01:50:19;30.45;;;19.65;;
34405;SDS011;20658;45.630;8.886;2022-12-18T01:52:56;33.95;;;20.02;;
34405;SDS011;20658;45.630;8.886;2022-12-18T01:55:35;30.20;;;19.85;;
34405;SDS011;20658;45.630;8.886;2022-12-18T01:58:14;30.55;;;20.27;;
34405;SDS011;20658;45.630;8.886;2022-12-18T02:00:45;29.90;;;19.40;;
34405;SDS011;20658;45.630;8.886;2022-12-18T02:03:14;32.45;;;20.38;;
34405;SDS011;20658;45.630;8.886;2022-12-18T02:05:48;31.30;;;19.27;;
34405;SDS011;20658;45.630;8.886;2022-12-18T02:08:33;30.25;;;19.55;;
34405;SDS011;20658;45.630;8.886;2022-12-18T02:11:07;35.35;;;21.02;;
34405;SDS011;20658;45.630;8.886;2022-12-18T02:13:44;33.25;;;20.38;;
34405;SDS011;20658;45.630;8.886;2022-12-18T02:16:29;34.42;;;20.20;;
34405;SDS011;20658;45.630;8.886;2022-12-18T02:19:18;33.63;;;20.30;;
34405;SDS011;20658;45.630;8.886;2022-12-18T02:22:25;34.28;;;20.23;;
34405;SDS011;20658;45.630;8.886;2022-12-18T02:25:16;31.10;;;19.63;;
34405;SDS011;20658;45.630;8.886;2022-12-18T02:28:09;30.08;;;19.65;;
34405;SDS011;20658;45.630;8.886;2022-12-18T02:30:41;32.03;;;19.90;;
34405;SDS011;20658;45.630;8.886;2022-12-18T02:33:18;31.15;;;19.50;;
34405;SDS011;20658;45.630;8.886;2022-12-18T02:35:49;29.30;;;18.60;;
34405;SDS011;20658;45.630;8.886;2022-12-18T02:38:20;32.88;;;19.10;;
34405;SDS011;20658;45.630;8.886;2022-12-18T02:40:55;29.20;;;19.15;;
34405;SDS011;20658;45.630;8.886;2022-12-18T02:43:27;26.00;;;17.02;;
34405;SDS011;20658;45.630;8.886;2022-12-18T02:45:58;27.88;;;17.42;;
34405;SDS011;20658;45.630;8.886;2022-12-18T02:51:03;29.60;;;17.83;;
34405;SDS011;20658;45.630;8.886;2022-12-18T02:53:39;27.73;;;17.15;;
34405;SDS011;20658;45.630;8.886;2022-12-18T02:56:18;26.83;;;16.17;;
34405;SDS011;20658;45.630;8.886;2022-12-18T02:58:58;26.70;;;17.13;;
34405;SDS011;20658;45.630;8.886;2022-12-18T03:01:43;23.05;;;14.55;;
34405;SDS011;20658;45.630;8.886;2022-12-18T03:04:24;28.00;;;15.70;;
34405;SDS011;20658;45.630;8.886;2022-12-18T03:07:05;27.00;;;16.38;;
34405;SDS011;20658;45.630;8.886;2022-12-18T03:09:45;23.00;;;14.57;;
34405;SDS011;20658;45.630;8.886;2022-12-18T03:12:24;25.23;;;15.85;;
34405;SDS011;20658;45.630;8.886;2022-12-18T03:15:06;25.05;;;14.68;;
34405;SDS011;20658;45.630;8.886;2022-12-18T03:17:50;23.45;;;15.15;;
34405;SDS011;20658;45.630;8.886;2022-12-18T03:20:25;25.42;;;14.63;;
34405;SDS011;20658;45.630;8.886;2022-12-18T03:22:57;22.27;;;14.60;;
34405;SDS011;20658;45.630;8.886;2022-12-18T03:25:37;24.52;;;15.80;;
34405;SDS011;20658;45.630;8.886;2022-12-18T03:28:15;24.45;;;17.15;;
34405;SDS011;20658;45.630;8.886;2022-12-18T03:30:55;25.45;;;16.38;;
34405;SDS011;20658;45.630;8.886;2022-12-18T03:33:34;23.77;;;15.80;;
34405;SDS011;20658;45.630;8.886;2022-12-18T03:36:08;28.30;;;18.48;;
34405;SDS011;20658;45.630;8.886;2022-12-18T03:38:37;24.73;;;17.02;;
34405;SDS011;20658;45.630;8.886;2022-12-18T03:41:13;30.35;;;21.00;;
34405;SDS011;20658;45.630;8.886;2022-12-18T03:44:18;34.67;;;23.33;;
34405;SDS011;20658;45.630;8.886;2022-12-18T03:46:57;32.75;;;22.00;;
34405;SDS011;20658;45.630;8.886;2022-12-18T03:49:44;35.25;;;23.45;;
34405;SDS011;20658;45.630;8.886;2022-12-18T03:52:20;33.47;;;23.27;;
34405;SDS011;20658;45.630;8.886;2022-12-18T03:54:58;39.22;;;25.75;;
34405;SDS011;20658;45.630;8.886;2022-12-18T03:57:34;39.75;;;27.40;;
34405;SDS011;20658;45.630;8.886;2022-12-18T04:00:05;49.75;;;31.67;;
34405;SDS011;20658;45.630;8.886;2022-12-18T04:02:54;43.03;;;28.27;;
34405;SDS011;20658;45.630;8.886;2022-12-18T04:05:35;103.00;;;52.40;;
34405;SDS011;20658;45.630;8.886;2022-12-18T04:08:06;67.15;;;40.50;;
34405;SDS011;20658;45.630;8.886;2022-12-18T04:10:42;56.42;;;33.92;;
34405;SDS011;20658;45.630;8.886;2022-12-18T04:13:21;54.95;;;34.55;;
34405;SDS011;20658;45.630;8.886;2022-12-18T04:15:50;53.60;;;33.35;;
34405;SDS011;20658;45.630;8.886;2022-12-18T04:18:25;49.60;;;31.75;;
34405;SDS011;20658;45.630;8.886;2022-12-18T04:21:00;48.03;;;30.83;;
34405;SDS011;20658;45.630;8.886;2022-12-18T04:23:34;53.83;;;32.10;;
34405;SDS011;20658;45.630;8.886;2022-12-18T04:26:07;52.53;;;32.17;;
34405;SDS011;20658;45.630;8.886;2022-12-18T04:28:50;52.80;;;32.60;;
34405;SDS011;20658;45.630;8.886;2022-12-18T04:31:24;76.65;;;37.88;;
34405;SDS011;20658;45.630;8.886;2022-12-18T04:33:59;66.88;;;36.58;;
34405;SDS011;20658;45.630;8.886;2022-12-18T04:36:38;52.15;;;32.75;;
34405;SDS011;20658;45.630;8.886;2022-12-18T04:39:12;51.13;;;32.15;;
34405;SDS011;20658;45.630;8.886;2022-12-18T04:41:41;54.28;;;32.58;;
34405;SDS011;20658;45.630;8.886;2022-12-18T04:44:14;57.58;;;33.83;;
34405;SDS011;20658;45.630;8.886;2022-12-18T04:46:49;53.28;;;33.47;;
34405;SDS011;20658;45.630;8.886;2022-12-18T04:49:18;48.92;;;33.53;;
34405;SDS011;20658;45.630;8.886;2022-12-18T04:51:52;47.97;;;31.10;;
34405;SDS011;20658;45.630;8.886;2022-12-18T04:54:21;57.50;;;34.75;;
34405;SDS011;20658;45.630;8.886;2022-12-18T04:56:54;53.72;;;33.13;;
34405;SDS011;20658;45.630;8.886;2022-12-18T04:59:23;55.58;;;33.75;;
34405;SDS011;20658;45.630;8.886;2022-12-18T05:01:56;60.35;;;35.90;;
34405;SDS011;20658;45.630;8.886;2022-12-18T05:04:26;64.40;;;37.20;;
34405;SDS011;20658;45.630;8.886;2022-12-18T05:07:00;57.83;;;36.42;;
34405;SDS011;20658;45.630;8.886;2022-12-18T05:09:34;58.83;;;35.65;;
34405;SDS011;20658;45.630;8.886;2022-12-18T05:12:07;63.42;;;37.75;;
34405;SDS011;20658;45.630;8.886;2022-12-18T05:14:40;59.45;;;36.33;;
34405;SDS011;20658;45.630;8.886;2022-12-18T05:17:14;64.50;;;37.50;;
34405;SDS011;20658;45.630;8.886;2022-12-18T05:19:44;58.85;;;36.35;;
34405;SDS011;20658;45.630;8.886;2022-12-18T05:22:17;54.97;;;33.90;;
34405;SDS011;20658;45.630;8.886;2022-12-18T05:24:50;56.05;;;34.70;;
34405;SDS011;20658;45.630;8.886;2022-12-18T05:27:23;60.22;;;34.22;;
34405;SDS011;20658;45.630;8.886;2022-12-18T05:29:52;47.90;;;31.38;;
34405;SDS011;20658;45.630;8.886;2022-12-18T05:32:25;51.22;;;30.25;;
34405;SDS011;20658;45.630;8.886;2022-12-18T05:34:55;51.70;;;31.75;;
34405;SDS011;20658;45.630;8.886;2022-12-18T05:37:29;51.78;;;32.10;;
34405;SDS011;20658;45.630;8.886;2022-12-18T05:40:02;51.80;;;32.45;;
34405;SDS011;20658;45.630;8.886;2022-12-18T05:42:32;51.15;;;31.58;;
34405;SDS011;20658;45.630;8.886;2022-12-18T05:45:01;54.17;;;31.35;;
34405;SDS011;20658;45.630;8.886;2022-12-18T05:47:34;44.55;;;29.65;;
34405;SDS011;20658;45.630;8.886;2022-12-18T05:50:09;49.38;;;33.28;;
34405;SDS011;20658;45.630;8.886;2022-12-18T05:52:38;46.60;;;30.83;;
34405;SDS011;20658;45.630;8.886;2022-12-18T05:55:11;47.33;;;29.63;;
34405;SDS011;20658;45.630;8.886;2022-12-18T05:57:44;51.63;;;30.13;;
34405;SDS011;20658;45.630;8.886;2022-12-18T06:00:18;48.72;;;29.10;;
34405;SDS011;20658;45.630;8.886;2022-12-18T06:02:51;47.25;;;30.35;;
34405;SDS011;20658;45.630;8.886;2022-12-18T06:05:26;48.45;;;30.55;;
34405;SDS011;20658;45.630;8.886;2022-12-18T06:08:00;40.00;;;27.20;;
34405;SDS011;20658;45.630;8.886;2022-12-18T06:10:34;43.80;;;29.20;;
34405;SDS011;20658;45.630;8.886;2022-12-18T06:13:07;42.25;;;28.55;;
34405;SDS011;20658;45.630;8.886;2022-12-18T06:15:41;39.17;;;27.05;;
34405;SDS011;20658;45.630;8.886;2022-12-18T06:18:14;42.33;;;27.38;;
34405;SDS011;20658;45.630;8.886;2022-12-18T06:20:55;40.40;;;27.02;;
34405;SDS011;20658;45.630;8.886;2022-12-18T06:23:29;39.33;;;27.08;;
34405;SDS011;20658;45.630;8.886;2022-12-18T06:26:06;43.22;;;26.98;;
34405;SDS011;20658;45.630;8.886;2022-12-18T06:28:40;41.70;;;26.30;;
34405;SDS011;20658;45.630;8.886;2022-12-18T06:31:14;37.88;;;25.17;;
34405;SDS011;20658;45.630;8.886;2022-12-18T06:33:47;40.75;;;26.50;;
34405;SDS011;20658;45.630;8.886;2022-12-18T06:36:17;46.67;;;28.83;;
34405;SDS011;20658;45.630;8.886;2022-12-18T06:38:51;58.65;;;31.92;;
34405;SDS011;20658;45.630;8.886;2022-12-18T06:41:24;49.45;;;32.58;;
34405;SDS011;20658;45.630;8.886;2022-12-18T06:43:57;51.13;;;31.27;;
34405;SDS011;20658;45.630;8.886;2022-12-18T06:46:30;50.05;;;32.97;;
34405;SDS011;20658;45.630;8.886;2022-12-18T06:48:59;49.35;;;31.88;;
34405;SDS011;20658;45.630;8.886;2022-12-18T06:51:29;53.03;;;30.10;;
34405;SDS011;20658;45.630;8.886;2022-12-18T06:54:02;47.72;;;29.98;;
34405;SDS011;20658;45.630;8.886;2022-12-18T06:56:36;46.55;;;29.25;;
34405;SDS011;20658;45.630;8.886;2022-12-18T06:59:09;56.53;;;32.65;;
34405;SDS011;20658;45.630;8.886;2022-12-18T07:01:43;54.38;;;36.20;;
34405;SDS011;20658;45.630;8.886;2022-12-18T07:04:16;59.65;;;36.03;;
34405;SDS011;20658;45.630;8.886;2022-12-18T07:06:52;46.08;;;30.50;;
34405;SDS011;20658;45.630;8.886;2022-12-18T07:09:25;41.38;;;24.85;;
34405;SDS011;20658;45.630;8.886;2022-12-18T07:12:01;39.40;;;25.52;;
34405;SDS011;20658;45.630;8.886;2022-12-18T07:14:36;35.13;;;23.02;;
34405;SDS011;20658;45.630;8.886;2022-12-18T07:17:09;40.40;;;23.77;;
34405;SDS011;20658;45.630;8.886;2022-12-18T07:19:43;35.92;;;23.02;;
34405;SDS011;20658;45.630;8.886;2022-12-18T07:22:17;40.30;;;25.58;;
34405;SDS011;20658;45.630;8.886;2022-12-18T07:24:51;48.80;;;30.15;;
34405;SDS011;20658;45.630;8.886;2022-12-18T07:27:24;49.13;;;28.45;;
34405;SDS011;20658;45.630;8.886;2022-12-18T07:29:58;48.00;;;29.17;;
34405;SDS011;20658;45.630;8.886;2022-12-18T07:32:31;47.28;;;29.38;;
34405;SDS011;20658;45.630;8.886;2022-12-18T07:35:05;51.80;;;29.48;;
34405;SDS011;20658;45.630;8.886;2022-12-18T07:37:40;47.90;;;31.67;;
34405;SDS011;20658;45.630;8.886;2022-12-18T07:40:09;53.63;;;31.33;;
34405;SDS011;20658;45.630;8.886;2022-12-18T07:42:44;45.92;;;29.58;;
34405;SDS011;20658;45.630;8.886;2022-12-18T07:45:17;45.78;;;30.27;;
34405;SDS011;20658;45.630;8.886;2022-12-18T07:47:51;48.03;;;30.10;;
34405;SDS011;20658;45.630;8.886;2022-12-18T07:50:25;40.83;;;26.90;;
34405;SDS011;20658;45.630;8.886;2022-12-18T07:52:59;43.38;;;28.92;;
34405;SDS011;20658;45.630;8.886;2022-12-18T07:55:34;41.97;;;25.92;;
34405;SDS011;20658;45.630;8.886;2022-12-18T07:58:08;42.70;;;26.83;;
34405;SDS011;20658;45.630;8.886;2022-12-18T08:00:36;36.53;;;23.83;;
34405;SDS011;20658;45.630;8.886;2022-12-18T08:03:09;37.60;;;23.92;;
34405;SDS011;20658;45.630;8.886;2022-12-18T08:05:46;39.78;;;24.33;;
34405;SDS011;20658;45.630;8.886;2022-12-18T08:08:23;32.30;;;20.08;;
34405;SDS011;20658;45.630;8.886;2022-12-18T08:10:56;31.50;;;19.98;;
34405;SDS011;20658;45.630;8.886;2022-12-18T08:13:31;27.40;;;17.95;;
34405;SDS011;20658;45.630;8.886;2022-12-18T08:16:05;25.15;;;15.88;;
34405;SDS011;20658;45.630;8.886;2022-12-18T08:18:40;25.35;;;16.50;;
34405;SDS011;20658;45.630;8.886;2022-12-18T08:21:14;28.48;;;17.33;;
34405;SDS011;20658;45.630;8.886;2022-12-18T08:23:54;33.92;;;20.35;;
34405;SDS011;20658;45.630;8.886;2022-12-18T08:26:30;36.63;;;22.48;;
34405;SDS011;20658;45.630;8.886;2022-12-18T08:29:03;41.08;;;24.35;;
34405;SDS011;20658;45.630;8.886;2022-12-18T08:31:37;33.80;;;23.25;;
34405;SDS011;20658;45.630;8.886;2022-12-18T08:34:10;32.72;;;19.75;;
34405;SDS011;20658;45.630;8.886;2022-12-18T08:36:44;35.40;;;21.75;;
34405;SDS011;20658;45.630;8.886;2022-12-18T08:39:19;31.00;;;20.35;;
34405;SDS011;20658;45.630;8.886;2022-12-18T08:41:52;32.38;;;19.77;;
34405;SDS011;20658;45.630;8.886;2022-12-18T08:44:43;31.00;;;19.50;;
34405;SDS011;20658;45.630;8.886;2022-12-18T08:47:16;37.15;;;21.83;;
34405;SDS011;20658;45.630;8.886;2022-12-18T08:49:50;34.22;;;21.08;;
34405;SDS011;20658;45.630;8.886;2022-12-18T08:52:23;27.50;;;16.52;;
34405;SDS011;20658;45.630;8.886;2022-12-18T08:54:58;33.75;;;19.88;;
34405;SDS011;20658;45.630;8.886;2022-12-18T08:57:34;24.60;;;16.48;;
34405;SDS011;20658;45.630;8.886;2022-12-18T09:00:08;27.65;;;16.33;;
34405;SDS011;20658;45.630;8.886;2022-12-18T09:02:44;23.77;;;13.88;;
34405;SDS011;20658;45.630;8.886;2022-12-18T09:05:17;29.50;;;15.50;;
34405;SDS011;20658;45.630;8.886;2022-12-18T09:07:46;26.85;;;16.33;;
34405;SDS011;20658;45.630;8.886;2022-12-18T09:10:21;27.13;;;15.98;;
34405;SDS011;20658;45.630;8.886;2022-12-18T09:12:54;25.02;;;15.95;;
34405;SDS011;20658;45.630;8.886;2022-12-18T09:15:27;23.90;;;14.80;;
34405;SDS011;20658;45.630;8.886;2022-12-18T09:18:01;24.83;;;14.95;;
34405;SDS011;20658;45.630;8.886;2022-12-18T09:20:34;23.20;;;14.82;;
34405;SDS011;20658;45.630;8.886;2022-12-18T09:23:03;25.25;;;15.68;;
34405;SDS011;20658;45.630;8.886;2022-12-18T09:25:39;25.52;;;15.45;;
34405;SDS011;20658;45.630;8.886;2022-12-18T09:28:17;24.77;;;16.90;;
34405;SDS011;20658;45.630;8.886;2022-12-18T09:30:51;29.13;;;18.42;;
34405;SDS011;20658;45.630;8.886;2022-12-18T09:33:19;36.70;;;23.80;;
34405;SDS011;20658;45.630;8.886;2022-12-18T09:35:52;32.35;;;19.95;;
34405;SDS011;20658;45.630;8.886;2022-12-18T09:38:21;29.75;;;17.42;;
34405;SDS011;20658;45.630;8.886;2022-12-18T09:40:57;27.42;;;17.35;;
34405;SDS011;20658;45.630;8.886;2022-12-18T09:43:36;25.38;;;15.98;;
34405;SDS011;20658;45.630;8.886;2022-12-18T09:46:16;24.02;;;14.73;;
34405;SDS011;20658;45.630;8.886;2022-12-18T09:48:58;26.67;;;15.73;;
34405;SDS011;20658;45.630;8.886;2022-12-18T09:51:36;24.33;;;15.10;;
34405;SDS011;20658;45.630;8.886;2022-12-18T09:54:16;25.80;;;16.90;;
34405;SDS011;20658;45.630;8.886;2022-12-18T09:56:56;30.13;;;17.30;;
34405;SDS011;20658;45.630;8.886;2022-12-18T09:59:32;26.60;;;16.20;;
34405;SDS011;20658;45.630;8.886;2022-12-18T10:02:14;23.02;;;13.32;;
34405;SDS011;20658;45.630;8.886;2022-12-18T10:04:53;24.25;;;14.40;;
34405;SDS011;20658;45.630;8.886;2022-12-18T10:07:39;21.73;;;13.52;;
34405;SDS011;20658;45.630;8.886;2022-12-18T10:10:26;23.00;;;14.13;;
34405;SDS011;20658;45.630;8.886;2022-12-18T10:15:45;23.85;;;13.75;;
34405;SDS011;20658;45.630;8.886;2022-12-18T10:18:37;24.02;;;12.95;;
34405;SDS011;20658;45.630;8.886;2022-12-18T10:21:32;22.92;;;12.63;;
34405;SDS011;20658;45.630;8.886;2022-12-18T10:24:14;22.42;;;13.13;;
34405;SDS011;20658;45.630;8.886;2022-12-18T10:26:55;21.02;;;12.70;;
34405;SDS011;20658;45.630;8.886;2022-12-18T10:29:34;26.13;;;14.98;;
34405;SDS011;20658;45.630;8.886;2022-12-18T10:32:09;22.15;;;12.23;;
34405;SDS011;20658;45.630;8.886;2022-12-18T10:34:48;21.85;;;12.43;;
34405;SDS011;20658;45.630;8.886;2022-12-18T10:37:27;17.90;;;11.27;;
34405;SDS011;20658;45.630;8.886;2022-12-18T10:40:10;20.08;;;12.25;;
34405;SDS011;20658;45.630;8.886;2022-12-18T10:42:41;21.48;;;13.90;;
34405;SDS011;20658;45.630;8.886;2022-12-18T10:45:16;20.48;;;12.38;;
34405;SDS011;20658;45.630;8.886;2022-12-18T10:47:45;23.05;;;14.35;;
34405;SDS011;20658;45.630;8.886;2022-12-18T10:50:24;22.73;;;14.68;;
34405;SDS011;20658;45.630;8.886;2022-12-18T10:53:03;27.23;;;17.92;;
34405;SDS011;20658;45.630;8.886;2022-12-18T10:55:38;27.45;;;16.48;;
34405;SDS011;20658;45.630;8.886;2022-12-18T10:58:20;25.45;;;15.68;;
34405;SDS011;20658;45.630;8.886;2022-12-18T11:04:01;25.50;;;15.43;;
34405;SDS011;20658;45.630;8.886;2022-12-18T11:06:52;27.70;;;16.85;;
34405;SDS011;20658;45.630;8.886;2022-12-18T11:09:26;27.08;;;15.85;;
34405;SDS011;20658;45.630;8.886;2022-12-18T11:11:59;45.75;;;27.20;;
34405;SDS011;20658;45.630;8.886;2022-12-18T11:14:32;55.42;;;32.42;;
34405;SDS011;20658;45.630;8.886;2022-12-18T11:17:19;64.90;;;39.58;;
34405;SDS011;20658;45.630;8.886;2022-12-18T11:19:53;72.82;;;42.40;;
34405;SDS011;20658;45.630;8.886;2022-12-18T11:22:29;68.85;;;41.50;;
34405;SDS011;20658;45.630;8.886;2022-12-18T11:25:18;77.22;;;44.42;;
34405;SDS011;20658;45.630;8.886;2022-12-18T11:27:48;73.75;;;43.13;;
34405;SDS011;20658;45.630;8.886;2022-12-18T11:30:25;141.90;;;80.55;;
34405;SDS011;20658;45.630;8.886;2022-12-18T11:33:05;93.32;;;52.67;;
34405;SDS011;20658;45.630;8.886;2022-12-18T11:35:38;96.75;;;52.67;;
34405;SDS011;20658;45.630;8.886;2022-12-18T11:38:21;85.32;;;49.00;;
34405;SDS011;20658;45.630;8.886;2022-12-18T11:40:53;95.63;;;49.90;;
34405;SDS011;20658;45.630;8.886;2022-12-18T11:43:31;88.13;;;47.58;;
34405;SDS011;20658;45.630;8.886;2022-12-18T11:46:11;85.28;;;44.40;;
34405;SDS011;20658;45.630;8.886;2022-12-18T11:48:52;80.38;;;45.33;;
34405;SDS011;20658;45.630;8.886;2022-12-18T11:51:26;80.90;;;43.85;;
34405;SDS011;20658;45.630;8.886;2022-12-18T11:54:08;105.38;;;53.85;;
34405;SDS011;20658;45.630;8.886;2022-12-18T11:56:46;102.28;;;51.38;;
34405;SDS011;20658;45.630;8.886;2022-12-18T11:59:25;90.75;;;48.65;;
34405;SDS011;20658;45.630;8.886;2022-12-18T12:02:19;95.72;;;50.85;;
34405;SDS011;20658;45.630;8.886;2022-12-18T12:05:13;92.05;;;52.35;;
34405;SDS011;20658;45.630;8.886;2022-12-18T12:08:00;101.57;;;52.63;;
34405;SDS011;20658;45.630;8.886;2022-12-18T12:10:46;120.90;;;66.00;;
34405;SDS011;20658;45.630;8.886;2022-12-18T12:13:33;126.05;;;65.75;;
34405;SDS011;20658;45.630;8.886;2022-12-18T12:16:17;106.88;;;58.47;;
34405;SDS011;20658;45.630;8.886;2022-12-18T12:19:01;153.65;;;84.47;;
34405;SDS011;20658;45.630;8.886;2022-12-18T12:21:58;103.78;;;51.35;;
34405;SDS011;20658;45.630;8.886;2022-12-18T12:24:45;103.05;;;54.85;;
34405;SDS011;20658;45.630;8.886;2022-12-18T12:27:32;91.82;;;51.00;;
34405;SDS011;20658;45.630;8.886;2022-12-18T12:30:17;92.13;;;50.53;;
34405;SDS011;20658;45.630;8.886;2022-12-18T12:32:58;98.22;;;52.22;;
34405;SDS011;20658;45.630;8.886;2022-12-18T12:35:44;96.70;;;49.83;;
34405;SDS011;20658;45.630;8.886;2022-12-18T12:38:30;88.72;;;50.70;;
34405;SDS011;20658;45.630;8.886;2022-12-18T12:41:09;97.75;;;51.50;;
34405;SDS011;20658;45.630;8.886;2022-12-18T12:46:38;81.40;;;47.70;;
34405;SDS011;20658;45.630;8.886;2022-12-18T12:49:15;79.90;;;46.67;;
34405;SDS011;20658;45.630;8.886;2022-12-18T12:51:52;107.65;;;62.58;;
34405;SDS011;20658;45.630;8.886;2022-12-18T12:54:33;87.18;;;50.08;;
34405;SDS011;20658;45.630;8.886;2022-12-18T12:57:08;82.38;;;46.85;;
34405;SDS011;20658;45.630;8.886;2022-12-18T12:59:49;83.07;;;49.40;;
34405;SDS011;20658;45.630;8.886;2022-12-18T13:02:31;90.13;;;50.35;;
34405;SDS011;20658;45.630;8.886;2022-12-18T13:05:14;78.95;;;46.58;;
34405;SDS011;20658;45.630;8.886;2022-12-18T13:07:54;77.85;;;45.22;;
34405;SDS011;20658;45.630;8.886;2022-12-18T13:10:35;79.57;;;46.03;;
34405;SDS011;20658;45.630;8.886;2022-12-18T13:13:06;80.13;;;45.33;;
34405;SDS011;20658;45.630;8.886;2022-12-18T13:15:41;77.78;;;44.25;;
34405;SDS011;20658;45.630;8.886;2022-12-18T13:18:20;77.18;;;46.17;;
34405;SDS011;20658;45.630;8.886;2022-12-18T13:21:01;77.43;;;45.25;;
34405;SDS011;20658;45.630;8.886;2022-12-18T13:23:44;72.53;;;43.70;;
34405;SDS011;20658;45.630;8.886;2022-12-18T13:26:29;85.43;;;53.20;;
34405;SDS011;20658;45.630;8.886;2022-12-18T13:29:04;86.25;;;53.17;;
34405;SDS011;20658;45.630;8.886;2022-12-18T13:31:57;84.60;;;55.40;;
34405;SDS011;20658;45.630;8.886;2022-12-18T13:34:32;79.28;;;51.53;;
34405;SDS011;20658;45.630;8.886;2022-12-18T13:43:30;74.35;;;49.42;;
34405;SDS011;20658;45.630;8.886;2022-12-18T13:46:21;79.00;;;52.17;;
34405;SDS011;20658;45.630;8.886;2022-12-18T13:48:59;97.35;;;75.90;;
34405;SDS011;20658;45.630;8.886;2022-12-18T13:51:35;82.78;;;54.47;;
34405;SDS011;20658;45.630;8.886;2022-12-18T13:54:17;77.38;;;52.88;;
34405;SDS011;20658;45.630;8.886;2022-12-18T13:56:55;73.72;;;51.67;;
34405;SDS011;20658;45.630;8.886;2022-12-18T13:59:34;130.07;;;84.88;;
34405;SDS011;20658;45.630;8.886;2022-12-18T14:02:12;83.15;;;51.55;;
34405;SDS011;20658;45.630;8.886;2022-12-18T14:04:48;78.45;;;49.35;;
34405;SDS011;20658;45.630;8.886;2022-12-18T14:07:18;75.85;;;44.80;;
34405;SDS011;20658;45.630;8.886;2022-12-18T14:09:49;75.57;;;46.10;;
34405;SDS011;20658;45.630;8.886;2022-12-18T14:12:25;77.28;;;47.00;;
34405;SDS011;20658;45.630;8.886;2022-12-18T14:15:20;79.85;;;45.78;;
34405;SDS011;20658;45.630;8.886;2022-12-18T14:18:03;73.28;;;44.33;;
34405;SDS011;20658;45.630;8.886;2022-12-18T14:20:48;81.80;;;52.50;;
34405;SDS011;20658;45.630;8.886;2022-12-18T14:23:27;79.70;;;50.45;;
34405;SDS011;20658;45.630;8.886;2022-12-18T14:26:18;85.20;;;47.10;;
34405;SDS011;20658;45.630;8.886;2022-12-18T14:28:56;82.30;;;47.50;;
34405;SDS011;20658;45.630;8.886;2022-12-18T14:31:33;80.80;;;48.05;;
34405;SDS011;20658;45.630;8.886;2022-12-18T14:34:08;83.72;;;48.22;;
34405;SDS011;20658;45.630;8.886;2022-12-18T14:36:51;86.63;;;51.97;;
34405;SDS011;20658;45.630;8.886;2022-12-18T14:39:26;76.70;;;46.35;;
34405;SDS011;20658;45.630;8.886;2022-12-18T14:42:00;84.85;;;49.50;;
34405;SDS011;20658;45.630;8.886;2022-12-18T14:44:33;101.07;;;65.18;;
34405;SDS011;20658;45.630;8.886;2022-12-18T14:47:13;96.07;;;60.10;;
34405;SDS011;20658;45.630;8.886;2022-12-18T14:49:48;87.87;;;52.80;;
34405;SDS011;20658;45.630;8.886;2022-12-18T14:52:25;129.77;;;99.68;;
34405;SDS011;20658;45.630;8.886;2022-12-18T14:55:01;117.60;;;81.78;;
34405;SDS011;20658;45.630;8.886;2022-12-18T14:57:35;96.18;;;62.88;;
34405;SDS011;20658;45.630;8.886;2022-12-18T15:00:14;89.57;;;53.75;;
34405;SDS011;20658;45.630;8.886;2022-12-18T15:02:47;86.95;;;50.95;;
34405;SDS011;20658;45.630;8.886;2022-12-18T15:05:20;94.15;;;56.58;;
34405;SDS011;20658;45.630;8.886;2022-12-18T15:07:53;88.78;;;54.65;;
34405;SDS011;20658;45.630;8.886;2022-12-18T15:10:29;83.90;;;49.45;;
34405;SDS011;20658;45.630;8.886;2022-12-18T15:13:06;98.43;;;56.70;;
34405;SDS011;20658;45.630;8.886;2022-12-18T15:15:48;90.75;;;49.90;;
34405;SDS011;20658;45.630;8.886;2022-12-18T15:18:25;85.15;;;48.38;;
34405;SDS011;20658;45.630;8.886;2022-12-18T15:21:08;77.60;;;45.30;;
34405;SDS011;20658;45.630;8.886;2022-12-18T15:23:45;82.25;;;47.97;;
34405;SDS011;20658;45.630;8.886;2022-12-18T15:26:21;84.03;;;49.75;;
34405;SDS011;20658;45.630;8.886;2022-12-18T15:28:50;75.72;;;47.08;;
34405;SDS011;20658;45.630;8.886;2022-12-18T15:31:22;88.90;;;48.75;;
34405;SDS011;20658;45.630;8.886;2022-12-18T15:34:09;82.82;;;47.50;;